createdAt,value
2018-01-13T00:00:20.411Z,5.10
2018-01-13T00:02:47.994Z,5.20
2018-01-13T00:05:16.288Z,5.30
2018-01-13T00:07:45.306Z,5.30
2018-01-13T00:10:15.769Z,5.20
2018-01-13T00:12:43.297Z,5.20
2018-01-13T00:15:12.760Z,5.20
2018-01-13T00:17:41.691Z,5.00
2018-01-13T00:20:11.223Z,5.00
2018-01-13T00:22:42.031Z,4.90
2018-01-13T00:25:12.519Z,5.00
2018-01-13T00:27:43.050Z,5.00
2018-01-13T00:30:12.573Z,5.00
2018-01-13T00:32:42.370Z,5.10
2018-01-13T00:35:10.082Z,5.10
2018-01-13T00:37:40.114Z,5.10
2018-01-13T00:40:11.298Z,5.10
2018-01-13T00:42:40.589Z,5.00
2018-01-13T00:45:09.592Z,5.10
2018-01-13T00:47:39.554Z,5.20
2018-01-13T00:50:09.595Z,5.30
2018-01-13T00:52:37.649Z,5.30
2018-01-13T00:55:08.971Z,5.20
2018-01-13T00:57:39.124Z,5.20
2018-01-13T01:00:06.750Z,5.20
2018-01-13T01:02:34.336Z,5.40
2018-01-13T01:05:03.915Z,5.50
2018-01-13T01:07:32.611Z,5.40
2018-01-13T01:10:02.593Z,5.50
2018-01-13T01:12:32.293Z,5.60
2018-01-13T01:15:02.375Z,5.60
2018-01-13T01:17:31.692Z,5.70
2018-01-13T01:20:00.463Z,5.70
2018-01-13T01:22:30.783Z,5.70
2018-01-13T01:24:59.710Z,5.60
2018-01-13T01:27:28.193Z,5.70
2018-01-13T01:29:56.677Z,5.30
2018-01-13T01:32:26.643Z,5.40
2018-01-13T01:34:54.805Z,5.40
2018-01-13T01:37:23.531Z,5.30
2018-01-13T01:39:51.996Z,5.00
2018-01-13T01:42:19.554Z,5.20
2018-01-13T01:44:47.131Z,5.30
2018-01-13T01:47:14.716Z,5.30
2018-01-13T01:49:43.022Z,5.20
2018-01-13T01:52:10.717Z,5.20
2018-01-13T01:54:38.250Z,5.10
2018-01-13T01:57:05.826Z,5.10
2018-01-13T01:59:33.418Z,5.10
2018-01-13T02:02:00.979Z,5.10
2018-01-13T02:04:28.592Z,5.20
2018-01-13T02:06:56.117Z,5.10
2018-01-13T02:09:23.732Z,5.20
2018-01-13T02:11:51.320Z,5.00
2018-01-13T02:14:18.848Z,5.10
2018-01-13T02:16:46.452Z,5.10
2018-01-13T02:19:14.022Z,5.20
2018-01-13T02:21:41.753Z,5.30
2018-01-13T02:24:09.291Z,5.10
2018-01-13T02:26:36.876Z,5.10
2018-01-13T02:29:04.456Z,4.90
2018-01-13T02:31:32.059Z,4.80
2018-01-13T02:33:59.617Z,4.70
2018-01-13T02:36:27.202Z,4.90
2018-01-13T02:38:54.748Z,5.00
2018-01-13T02:41:23.143Z,5.10
2018-01-13T02:43:50.945Z,5.00
2018-01-13T02:46:18.464Z,5.10
2018-01-13T02:48:46.252Z,5.20
2018-01-13T02:51:13.866Z,5.20
2018-01-13T02:53:41.426Z,5.20
2018-01-13T02:56:09.014Z,5.00
2018-01-13T02:58:36.553Z,5.00
2018-01-13T03:01:04.456Z,5.10
2018-01-13T03:03:32.294Z,5.10
2018-01-13T03:05:59.895Z,4.90
2018-01-13T03:08:28.278Z,4.60
2018-01-13T03:10:55.836Z,4.60
2018-01-13T03:13:23.411Z,4.70
2018-01-13T03:15:50.993Z,4.60
2018-01-13T03:18:20.042Z,4.80
2018-01-13T03:20:47.595Z,4.80
2018-01-13T03:23:15.666Z,4.70
2018-01-13T03:25:43.831Z,4.60
2018-01-13T03:28:11.454Z,4.60
2018-01-13T03:30:39.764Z,4.80
2018-01-13T03:33:07.304Z,4.70
2018-01-13T03:35:34.864Z,4.60
2018-01-13T03:38:02.450Z,4.70
2018-01-13T03:40:30.023Z,4.70
2018-01-13T03:42:57.629Z,4.40
2018-01-13T03:45:25.924Z,4.50
2018-01-13T03:47:53.719Z,4.50
2018-01-13T03:50:21.336Z,4.60
2018-01-13T03:52:48.868Z,4.40
2018-01-13T03:55:16.450Z,4.50
2018-01-13T03:57:44.034Z,4.60
2018-01-13T04:00:11.584Z,4.70
2018-01-13T04:02:40.070Z,4.80
2018-01-13T04:05:07.607Z,4.80
2018-01-13T04:07:35.172Z,4.80
2018-01-13T04:10:04.552Z,4.90
2018-01-13T04:12:32.913Z,5.00
2018-01-13T04:15:00.469Z,4.90
2018-01-13T04:17:28.071Z,4.90
2018-01-13T04:19:55.652Z,4.60
2018-01-13T04:22:23.228Z,4.50
2018-01-13T04:24:50.798Z,4.30
2018-01-13T04:27:18.832Z,4.30
2018-01-13T04:29:48.108Z,4.50
2018-01-13T04:32:15.630Z,4.50
2018-01-13T04:34:43.190Z,4.60
2018-01-13T04:37:10.806Z,4.60
2018-01-13T04:39:39.105Z,4.70
2018-01-13T04:42:06.637Z,4.70
2018-01-13T04:44:34.968Z,4.80
2018-01-13T04:47:02.502Z,4.80
2018-01-13T04:49:30.094Z,4.90
2018-01-13T04:51:57.655Z,5.10
2018-01-13T04:54:25.222Z,4.80
2018-01-13T04:56:53.733Z,5.00
2018-01-13T04:59:21.362Z,4.90
2018-01-13T05:01:49.715Z,5.00
2018-01-13T05:04:17.346Z,5.00
2018-01-13T05:06:45.731Z,5.00
2018-01-13T05:09:13.260Z,5.00
2018-01-13T05:11:40.808Z,5.00
2018-01-13T05:14:08.385Z,4.80
2018-01-13T05:16:35.939Z,4.80
2018-01-13T05:19:04.811Z,4.90
2018-01-13T05:21:32.379Z,4.90
2018-01-13T05:23:59.960Z,4.70
2018-01-13T05:26:27.540Z,4.70
2018-01-13T05:28:55.888Z,4.70
2018-01-13T05:31:25.751Z,4.70
2018-01-13T05:33:53.344Z,4.60
2018-01-13T05:36:20.962Z,4.50
2018-01-13T05:38:48.492Z,4.30
2018-01-13T05:41:16.816Z,4.40
2018-01-13T05:43:44.432Z,4.50
2018-01-13T05:46:12.018Z,4.40
2018-01-13T05:48:39.698Z,4.30
2018-01-13T05:51:08.172Z,4.10
2018-01-13T05:53:35.772Z,4.10
2018-01-13T05:56:03.347Z,4.20
2018-01-13T05:58:30.924Z,4.40
2018-01-13T06:00:59.504Z,4.30
2018-01-13T06:03:27.853Z,4.30
2018-01-13T06:05:56.073Z,4.30
2018-01-13T06:08:23.627Z,4.40
2018-01-13T06:10:51.192Z,4.40
2018-01-13T06:13:18.745Z,4.50
2018-01-13T06:15:47.266Z,4.50
2018-01-13T06:18:14.838Z,4.50
2018-01-13T06:20:42.380Z,4.60
2018-01-13T06:23:09.991Z,4.70
2018-01-13T06:25:38.316Z,4.40
2018-01-13T06:28:06.831Z,4.40
2018-01-13T06:30:34.363Z,4.40
2018-01-13T06:33:01.901Z,4.30
2018-01-13T06:35:29.579Z,4.40
2018-01-13T06:37:57.998Z,4.50
2018-01-13T06:40:25.639Z,4.40
2018-01-13T06:42:53.188Z,4.50
2018-01-13T06:45:20.787Z,4.70
2018-01-13T06:47:48.328Z,4.70
2018-01-13T06:50:16.038Z,4.80
2018-01-13T06:52:44.339Z,4.90
2018-01-13T06:55:11.872Z,4.90
2018-01-13T06:57:41.072Z,4.90
2018-01-13T07:00:09.960Z,4.70
2018-01-13T07:02:38.271Z,4.40
2018-01-13T07:05:06.735Z,4.40
2018-01-13T07:07:34.251Z,4.40
2018-01-13T07:10:01.824Z,4.50
2018-01-13T07:12:29.401Z,4.50
2018-01-13T07:14:57.711Z,4.50
2018-01-13T07:17:25.231Z,4.50
2018-01-13T07:19:52.806Z,4.60
2018-01-13T07:22:21.240Z,4.70
2018-01-13T07:24:48.869Z,4.70
2018-01-13T07:27:16.461Z,4.70
2018-01-13T07:29:43.992Z,4.70
2018-01-13T07:32:11.853Z,4.80
2018-01-13T07:34:39.404Z,4.80
2018-01-13T07:37:06.931Z,4.80
2018-01-13T07:39:35.273Z,4.70
2018-01-13T07:42:02.879Z,4.70
2018-01-13T07:44:31.181Z,4.70
2018-01-13T07:46:58.710Z,4.70
2018-01-13T07:49:26.259Z,4.80
2018-01-13T07:51:53.900Z,4.80
2018-01-13T07:54:21.961Z,4.90
2018-01-13T07:56:49.490Z,4.90
2018-01-13T07:59:17.119Z,5.00
2018-01-13T08:01:45.519Z,4.90
2018-01-13T08:04:13.057Z,4.90
2018-01-13T08:06:40.624Z,4.80
2018-01-13T08:09:09.836Z,4.30
2018-01-13T08:11:37.368Z,4.30
2018-01-13T08:14:04.926Z,4.30
2018-01-13T08:16:32.493Z,4.10
2018-01-13T08:19:00.085Z,4.10
2018-01-13T08:21:27.652Z,4.30
2018-01-13T08:23:55.914Z,4.40
2018-01-13T08:26:24.285Z,4.00
2018-01-13T08:28:51.814Z,4.00
2018-01-13T08:31:20.125Z,3.70
2018-01-13T08:33:47.664Z,3.90
2018-01-13T08:36:15.512Z,4.00
2018-01-13T08:38:43.054Z,4.00
2018-01-13T08:41:10.582Z,4.00
2018-01-13T08:43:38.896Z,4.10
2018-01-13T08:46:06.414Z,4.20
2018-01-13T08:48:34.042Z,4.30
2018-01-13T08:51:01.963Z,4.40
2018-01-13T08:53:29.511Z,4.50
2018-01-13T08:55:58.228Z,4.30
2018-01-13T08:58:25.832Z,4.10
2018-01-13T09:00:53.467Z,4.20
2018-01-13T09:03:21.094Z,4.10
2018-01-13T09:05:48.743Z,4.10
2018-01-13T09:08:16.520Z,4.30
2018-01-13T09:10:44.125Z,4.30
2018-01-13T09:13:13.195Z,4.00
2018-01-13T09:15:40.792Z,4.00
2018-01-13T09:18:09.187Z,4.20
2018-01-13T09:20:36.753Z,4.10
2018-01-13T09:23:04.903Z,4.20
2018-01-13T09:25:32.497Z,4.00
2018-01-13T09:28:00.107Z,4.10
2018-01-13T09:30:27.638Z,4.20
2018-01-13T09:32:55.205Z,4.20
2018-01-13T09:35:22.815Z,4.20
2018-01-13T09:37:50.401Z,4.40
2018-01-13T09:40:18.086Z,4.40
2018-01-13T09:42:45.730Z,4.50
2018-01-13T09:45:13.806Z,4.20
2018-01-13T09:47:41.366Z,4.20
2018-01-13T09:50:10.103Z,4.20
2018-01-13T09:52:39.137Z,4.20
2018-01-13T09:55:07.706Z,4.20
2018-01-13T09:57:35.319Z,4.10
2018-01-13T10:00:03.421Z,4.30
2018-01-13T10:02:30.979Z,4.50
2018-01-13T10:04:58.516Z,4.50
2018-01-13T10:07:26.278Z,4.50
2018-01-13T10:09:53.844Z,4.60
2018-01-13T10:12:21.382Z,4.60
2018-01-13T10:14:48.936Z,4.30
2018-01-13T10:17:16.524Z,4.30
2018-01-13T10:19:44.085Z,4.10
2018-01-13T10:22:11.673Z,4.20
2018-01-13T10:24:40.006Z,4.20
2018-01-13T10:27:07.882Z,4.20
2018-01-13T10:29:35.597Z,4.30
2018-01-13T10:32:03.245Z,4.30
2018-01-13T10:34:30.780Z,4.30
2018-01-13T10:37:00.703Z,4.50
2018-01-13T10:39:28.501Z,4.50
2018-01-13T10:41:56.212Z,4.50
2018-01-13T10:44:23.825Z,4.50
2018-01-13T10:46:51.380Z,4.40
2018-01-13T10:49:18.950Z,4.20
2018-01-13T10:51:47.499Z,4.30
2018-01-13T10:54:15.092Z,4.30
2018-01-13T10:56:42.762Z,4.20
2018-01-13T10:59:10.328Z,4.30
2018-01-13T11:01:37.885Z,4.30
2018-01-13T11:04:05.446Z,4.40
2018-01-13T11:06:33.014Z,4.50
2018-01-13T11:09:00.569Z,4.30
2018-01-13T11:11:29.295Z,4.40
2018-01-13T11:13:57.494Z,4.50
2018-01-13T11:16:25.111Z,4.50
2018-01-13T11:18:52.646Z,4.50
2018-01-13T11:21:20.360Z,4.60
2018-01-13T11:23:47.926Z,4.60
2018-01-13T11:26:15.518Z,4.70
2018-01-13T11:28:43.082Z,4.60
2018-01-13T11:31:10.660Z,4.60
2018-01-13T11:33:38.211Z,4.70
2018-01-13T11:36:05.775Z,4.70
2018-01-13T11:38:33.311Z,4.50
2018-01-13T11:41:01.033Z,4.40
2018-01-13T11:43:28.593Z,4.40
2018-01-13T11:45:56.147Z,4.60
2018-01-13T11:48:23.728Z,4.30
2018-01-13T11:50:51.334Z,4.30
2018-01-13T11:53:18.927Z,4.30
2018-01-13T11:55:47.346Z,3.90
2018-01-13T11:58:15.685Z,4.00
2018-01-13T12:00:43.402Z,3.90
2018-01-13T12:03:11.001Z,3.90
2018-01-13T12:05:38.626Z,3.90
2018-01-13T12:08:06.264Z,3.90
2018-01-13T12:10:33.886Z,3.90
2018-01-13T12:13:01.889Z,4.10
2018-01-13T12:15:29.561Z,4.00
2018-01-13T12:17:57.283Z,4.10
2018-01-13T12:20:24.876Z,4.10
2018-01-13T12:22:53.215Z,4.10
2018-01-13T12:25:20.802Z,4.10
2018-01-13T12:27:48.460Z,3.80
2018-01-13T12:30:16.057Z,3.80
2018-01-13T12:32:43.632Z,3.80
2018-01-13T12:35:11.252Z,4.00
2018-01-13T12:37:38.768Z,4.10
2018-01-13T12:40:07.079Z,4.10
2018-01-13T12:42:34.664Z,4.20
2018-01-13T12:45:02.292Z,4.20
2018-01-13T12:47:30.661Z,4.10
2018-01-13T12:49:58.244Z,4.20
2018-01-13T12:52:25.813Z,4.30
2018-01-13T12:54:53.533Z,4.30
2018-01-13T12:57:23.171Z,4.30
2018-01-13T12:59:50.775Z,4.40
2018-01-13T13:02:18.325Z,4.50
2018-01-13T13:04:45.961Z,4.50
2018-01-13T13:07:13.778Z,4.50
2018-01-13T13:09:41.321Z,4.50
2018-01-13T13:12:09.114Z,4.40
2018-01-13T13:14:37.030Z,4.20
2018-01-13T13:17:04.730Z,4.30
2018-01-13T13:19:32.276Z,4.30
2018-01-13T13:21:59.890Z,4.40
2018-01-13T13:24:27.420Z,4.30
2018-01-13T13:26:55.133Z,4.20
2018-01-13T13:29:22.701Z,4.00
2018-01-13T13:31:50.993Z,4.10
2018-01-13T13:34:18.554Z,4.10
2018-01-13T13:36:46.122Z,4.10
2018-01-13T13:39:13.690Z,4.10
2018-01-13T13:41:41.248Z,4.20
2018-01-13T13:44:08.787Z,4.20
2018-01-13T13:46:36.813Z,4.40
2018-01-13T13:49:04.672Z,4.50
2018-01-13T13:51:32.436Z,4.60
2018-01-13T13:54:00.858Z,4.70
2018-01-13T13:56:28.496Z,4.70
2018-01-13T13:58:56.798Z,4.90
2018-01-13T14:01:28.711Z,4.90
2018-01-13T14:03:51.993Z,4.90
2018-01-13T14:06:19.539Z,5.00
2018-01-13T14:08:47.277Z,4.70
2018-01-13T14:11:15.486Z,4.70
2018-01-13T14:13:43.048Z,4.80
2018-01-13T14:16:10.649Z,4.90
2018-01-13T14:18:38.216Z,5.00
2018-01-13T14:21:06.250Z,4.90
2018-01-13T14:23:33.826Z,5.00
2018-01-13T14:26:01.479Z,5.10
2018-01-13T14:28:29.805Z,5.20
2018-01-13T14:30:57.394Z,5.20
2018-01-13T14:33:24.965Z,5.20
2018-01-13T14:35:52.869Z,5.30
2018-01-13T14:38:21.199Z,5.20
2018-01-13T14:40:48.832Z,5.20
2018-01-13T14:43:16.398Z,5.20
2018-01-13T14:45:44.160Z,5.10
2018-01-13T14:48:11.739Z,5.10
2018-01-13T14:50:39.296Z,5.10
2018-01-13T14:53:06.841Z,5.00
2018-01-13T14:55:34.419Z,4.90
2018-01-13T14:58:02.007Z,4.90
2018-01-13T15:00:29.656Z,4.80
2018-01-13T15:02:57.202Z,4.70
2018-01-13T15:05:25.326Z,4.80
2018-01-13T15:07:52.920Z,4.90
2018-01-13T15:10:21.257Z,5.10
2018-01-13T15:12:49.607Z,5.10
2018-01-13T15:15:17.158Z,5.20
2018-01-13T15:17:44.731Z,5.30
2018-01-13T15:20:12.326Z,5.30
2018-01-13T15:22:41.454Z,5.30
2018-01-13T15:25:10.066Z,5.40
2018-01-13T15:27:37.665Z,5.40
2018-01-13T15:30:06.696Z,5.40
2018-01-13T15:32:34.278Z,5.30
2018-01-13T15:35:01.882Z,5.50
2018-01-13T15:37:30.183Z,5.50
2018-01-13T15:39:57.746Z,5.60
2018-01-13T15:42:26.205Z,5.60
2018-01-13T15:44:53.796Z,5.60
2018-01-13T15:47:21.391Z,5.70
2018-01-13T15:49:49.525Z,5.70
2018-01-13T15:52:17.158Z,5.80
2018-01-13T15:54:44.723Z,5.80
2018-01-13T15:57:12.389Z,5.80
2018-01-13T15:59:39.959Z,5.80
2018-01-13T16:02:07.534Z,5.80
2018-01-13T16:04:35.140Z,5.80
2018-01-13T16:07:02.803Z,5.80
2018-01-13T16:09:31.210Z,5.90
2018-01-13T16:11:58.778Z,5.80
2018-01-13T16:14:26.373Z,5.90
2018-01-13T16:16:53.962Z,5.80
2018-01-13T16:19:21.538Z,5.80
2018-01-13T16:21:52.101Z,5.80
2018-01-13T16:24:25.404Z,5.90
2018-01-13T16:26:57.552Z,5.90
2018-01-13T16:29:31.428Z,5.80
2018-01-13T16:32:01.634Z,5.80
2018-01-13T16:34:31.386Z,5.90
2018-01-13T16:36:59.017Z,5.90
2018-01-13T16:39:28.938Z,5.80
2018-01-13T16:41:57.904Z,5.90
2018-01-13T16:44:28.934Z,5.90
2018-01-13T16:46:57.904Z,5.90
2018-01-13T16:49:26.879Z,5.90
2018-01-13T16:51:56.428Z,5.80
2018-01-13T16:54:24.187Z,5.80
2018-01-13T16:56:53.188Z,5.80
2018-01-13T16:59:22.639Z,5.80
2018-01-13T17:01:50.718Z,5.80
2018-01-13T17:04:18.304Z,5.80
2018-01-13T17:06:45.889Z,5.80
2018-01-13T17:09:13.486Z,5.80
2018-01-13T17:11:41.848Z,5.80
2018-01-13T17:14:09.457Z,5.80
2018-01-13T17:16:37.042Z,5.80
2018-01-13T17:19:04.656Z,5.80
2018-01-13T17:21:32.275Z,5.80
2018-01-13T17:23:59.868Z,5.80
2018-01-13T17:26:27.393Z,5.80
2018-01-13T17:28:55.635Z,5.80
2018-01-13T17:31:23.216Z,5.80
2018-01-13T17:33:50.995Z,5.90
2018-01-13T17:36:18.628Z,5.90
2018-01-13T17:38:46.392Z,5.80
2018-01-13T17:41:14.064Z,5.90
2018-01-13T17:56:36.715Z,5.90
2018-01-13T17:59:04.549Z,5.40
2018-01-13T18:01:32.335Z,5.40
2018-01-13T18:03:59.967Z,5.50
2018-01-13T18:06:28.484Z,5.50
2018-01-13T18:08:56.092Z,5.50
2018-01-13T18:11:23.673Z,5.60
2018-01-13T18:13:51.264Z,5.50
2018-01-13T18:16:18.919Z,5.60
2018-01-13T18:18:46.510Z,5.60
2018-01-13T18:21:16.980Z,5.70
2018-01-13T18:23:45.230Z,5.70
2018-01-13T18:26:15.401Z,5.80
2018-01-13T18:28:44.849Z,5.80
2018-01-13T18:31:12.515Z,5.80
2018-01-13T18:33:42.907Z,5.80
2018-01-13T18:36:12.610Z,5.80
2018-01-13T18:38:42.932Z,5.80
2018-01-13T18:41:12.646Z,5.80
2018-01-13T18:43:42.516Z,5.90
2018-01-13T18:46:11.364Z,5.80
2018-01-13T18:48:42.183Z,5.80
2018-01-13T18:51:12.184Z,5.80
2018-01-13T18:53:42.405Z,5.80
2018-01-13T18:56:12.063Z,5.60
2018-01-13T18:58:41.712Z,5.60
2018-01-13T19:01:09.619Z,5.70
2018-01-13T19:03:37.172Z,5.70
2018-01-13T19:06:05.331Z,5.70
2018-01-13T19:08:33.052Z,5.70
2018-01-13T19:11:00.592Z,5.70
2018-01-13T19:13:28.207Z,5.70
2018-01-13T19:15:55.795Z,5.70
2018-01-13T19:18:23.335Z,5.70
2018-01-13T19:20:51.226Z,5.70
2018-01-13T19:23:18.750Z,5.70
2018-01-13T19:25:46.363Z,5.70
2018-01-13T19:28:13.909Z,5.70
2018-01-13T19:30:41.445Z,5.60
2018-01-13T19:33:09.031Z,5.70
2018-01-13T19:35:36.614Z,5.60
2018-01-13T19:38:04.952Z,5.70
2018-01-13T19:40:32.533Z,5.70
2018-01-13T19:43:00.088Z,5.70
2018-01-13T19:45:27.671Z,5.80
2018-01-13T19:47:56.872Z,5.80
2018-01-13T19:50:25.204Z,5.80
2018-01-13T19:52:52.856Z,5.80
2018-01-13T19:55:20.402Z,5.80
2018-01-13T19:57:47.975Z,5.90
2018-01-13T20:00:15.553Z,5.90
2018-01-13T20:02:43.137Z,5.90
2018-01-13T20:05:12.201Z,5.90
2018-01-13T20:07:39.749Z,5.90
2018-01-13T20:10:07.363Z,5.90
2018-01-13T20:12:34.958Z,5.90
2018-01-13T20:15:02.599Z,5.90
2018-01-13T20:17:31.054Z,5.90
2018-01-13T20:19:58.604Z,5.90
2018-01-13T20:22:26.167Z,5.90
2018-01-13T20:24:53.803Z,5.90
2018-01-13T20:27:21.370Z,5.80
2018-01-13T20:29:48.942Z,5.70
2018-01-13T20:32:16.552Z,5.70
2018-01-13T20:34:44.604Z,5.80
2018-01-13T20:37:12.164Z,5.80
2018-01-13T20:39:40.494Z,5.80
2018-01-13T20:42:08.106Z,5.80
2018-01-13T20:44:37.044Z,5.80
2018-01-13T20:47:04.636Z,5.80
2018-01-13T20:49:33.789Z,5.80
2018-01-13T20:52:01.326Z,5.80
2018-01-13T20:54:28.924Z,5.80
2018-01-13T20:56:56.478Z,5.80
2018-01-13T20:59:24.030Z,5.80
2018-01-13T21:01:52.257Z,5.80
2018-01-13T21:04:20.296Z,5.80
2018-01-13T21:06:47.845Z,5.80
2018-01-13T21:09:16.164Z,5.80
2018-01-13T21:11:43.707Z,5.80
2018-01-13T21:14:11.299Z,5.80
2018-01-13T21:16:39.710Z,5.70
2018-01-13T21:19:07.910Z,5.80
2018-01-13T21:21:35.472Z,5.70
2018-01-13T21:24:03.112Z,5.80
2018-01-13T21:26:30.715Z,5.80
2018-01-13T21:28:58.284Z,5.70
2018-01-13T21:31:25.999Z,5.70
2018-01-13T21:33:54.139Z,5.80
2018-01-13T21:36:21.742Z,5.70
2018-01-13T21:38:49.292Z,5.70
2018-01-13T21:41:16.876Z,5.80
2018-01-13T21:43:44.477Z,5.80
2018-01-13T21:46:12.804Z,5.80
2018-01-13T21:48:40.371Z,5.80
2018-01-13T21:51:07.938Z,5.80
2018-01-13T21:53:35.502Z,5.70
2018-01-13T21:56:03.062Z,5.80
2018-01-13T21:58:30.595Z,5.80
2018-01-13T22:00:59.152Z,5.80
2018-01-13T22:03:26.708Z,5.80
2018-01-13T22:05:54.241Z,5.80
2018-01-13T22:08:21.803Z,5.80
2018-01-13T22:10:50.179Z,5.80
2018-01-13T22:13:17.736Z,5.80
2018-01-13T22:15:45.555Z,5.80
2018-01-13T22:18:13.084Z,5.80
2018-01-13T22:20:40.670Z,5.80
2018-01-13T22:23:08.203Z,5.80
2018-01-13T22:25:35.741Z,5.80
2018-01-13T22:28:04.229Z,5.80
2018-01-13T22:30:32.681Z,5.80
2018-01-13T22:33:03.207Z,5.80
2018-01-13T22:35:33.132Z,5.70
2018-01-13T22:38:00.701Z,5.80
2018-01-13T22:40:31.699Z,5.80
2018-01-13T22:43:00.218Z,5.80
2018-01-13T22:45:29.892Z,5.80
2018-01-13T22:47:59.262Z,5.80
2018-01-13T22:50:29.367Z,5.90
2018-01-13T22:53:00.163Z,5.80
2018-01-13T22:55:29.187Z,5.90
2018-01-13T22:57:56.796Z,5.80
2018-01-13T23:03:33.071Z,5.80
2018-01-13T23:06:00.645Z,5.80
2018-01-13T23:08:30.686Z,5.80
2018-01-13T23:11:01.248Z,5.80
2018-01-13T23:13:31.908Z,5.80
2018-01-13T23:16:02.378Z,5.80
2018-01-13T23:18:30.836Z,5.70
2018-01-13T23:21:00.442Z,5.80
2018-01-13T23:23:31.406Z,5.80
2018-01-13T23:26:01.524Z,5.60
2018-01-13T23:28:31.539Z,5.70
2018-01-13T23:31:04.562Z,5.70
2018-01-13T23:33:34.523Z,5.70
2018-01-13T23:36:05.177Z,5.70
2018-01-13T23:38:33.718Z,5.60
2018-01-13T23:41:02.612Z,5.60
2018-01-13T23:43:31.213Z,5.70
2018-01-13T23:45:59.744Z,5.60
2018-01-13T23:48:29.556Z,5.70
2018-01-13T23:50:59.082Z,5.70
2018-01-13T23:53:26.627Z,5.60
2018-01-13T23:55:56.026Z,5.70
2018-01-13T23:58:26.542Z,5.70
